sensor_id;sensor_type;location;lat;lon;timestamp;P1;durP1;ratioP1;P2;durP2;ratioP2
8556;SDS011;4316;53.840;10.762;2024-03-07T00:00:10;17.77;;;9.50;;
8556;SDS011;4316;53.840;10.762;2024-03-07T00:02:42;19.90;;;10.07;;
8556;SDS011;4316;53.840;10.762;2024-03-07T00:05:08;19.30;;;9.67;;
8556;SDS011;4316;53.840;10.762;2024-03-07T00:07:33;22.07;;;10.90;;
8556;SDS011;4316;53.840;10.762;2024-03-07T00:10:00;19.10;;;10.77;;
8556;SDS011;4316;53.840;10.762;2024-03-07T00:12:29;15.33;;;9.57;;
8556;SDS011;4316;53.840;10.762;2024-03-07T00:14:55;23.40;;;9.53;;
8556;SDS011;4316;53.840;10.762;2024-03-07T00:17:21;15.60;;;10.00;;
8556;SDS011;4316;53.840;10.762;2024-03-07T00:19:48;16.73;;;9.63;;
8556;SDS011;4316;53.840;10.762;2024-03-07T00:22:14;20.37;;;9.63;;
8556;SDS011;4316;53.840;10.762;2024-03-07T00:24:40;16.23;;;10.63;;
8556;SDS011;4316;53.840;10.762;2024-03-07T00:27:08;17.37;;;9.43;;
8556;SDS011;4316;53.840;10.762;2024-03-07T00:29:34;16.73;;;9.73;;
8556;SDS011;4316;53.840;10.762;2024-03-07T00:32:03;14.93;;;8.93;;
8556;SDS011;4316;53.840;10.762;2024-03-07T00:34:29;20.03;;;10.03;;
8556;SDS011;4316;53.840;10.762;2024-03-07T00:36:55;20.83;;;9.67;;
8556;SDS011;4316;53.840;10.762;2024-03-07T00:39:23;22.63;;;9.57;;
8556;SDS011;4316;53.840;10.762;2024-03-07T00:41:49;15.53;;;9.00;;
8556;SDS011;4316;53.840;10.762;2024-03-07T00:44:14;20.27;;;10.30;;
8556;SDS011;4316;53.840;10.762;2024-03-07T00:46:41;15.37;;;9.50;;
8556;SDS011;4316;53.840;10.762;2024-03-07T00:49:07;15.13;;;9.00;;
8556;SDS011;4316;53.840;10.762;2024-03-07T00:51:33;19.33;;;9.43;;
8556;SDS011;4316;53.840;10.762;2024-03-07T00:53:59;16.63;;;8.37;;
8556;SDS011;4316;53.840;10.762;2024-03-07T00:56:24;17.53;;;7.87;;
8556;SDS011;4316;53.840;10.762;2024-03-07T00:58:50;23.60;;;9.50;;
8556;SDS011;4316;53.840;10.762;2024-03-07T01:01:17;17.80;;;8.67;;
8556;SDS011;4316;53.840;10.762;2024-03-07T01:03:44;16.00;;;8.30;;
8556;SDS011;4316;53.840;10.762;2024-03-07T01:06:10;17.43;;;8.27;;
8556;SDS011;4316;53.840;10.762;2024-03-07T01:08:36;13.73;;;8.37;;
8556;SDS011;4316;53.840;10.762;2024-03-07T01:11:05;10.20;;;7.27;;
8556;SDS011;4316;53.840;10.762;2024-03-07T01:13:43;11.83;;;7.83;;
8556;SDS011;4316;53.840;10.762;2024-03-07T01:16:09;17.27;;;8.67;;
8556;SDS011;4316;53.840;10.762;2024-03-07T01:18:35;15.83;;;7.80;;
8556;SDS011;4316;53.840;10.762;2024-03-07T01:21:03;18.87;;;8.37;;
8556;SDS011;4316;53.840;10.762;2024-03-07T01:23:29;15.87;;;8.07;;
8556;SDS011;4316;53.840;10.762;2024-03-07T01:25:56;14.47;;;8.37;;
8556;SDS011;4316;53.840;10.762;2024-03-07T01:28:23;15.27;;;8.50;;
8556;SDS011;4316;53.840;10.762;2024-03-07T01:30:55;20.00;;;8.50;;
8556;SDS011;4316;53.840;10.762;2024-03-07T01:33:23;12.67;;;8.10;;
8556;SDS011;4316;53.840;10.762;2024-03-07T01:35:49;14.50;;;7.53;;
8556;SDS011;4316;53.840;10.762;2024-03-07T01:38:15;17.40;;;8.63;;
8556;SDS011;4316;53.840;10.762;2024-03-07T01:40:45;12.70;;;8.40;;
8556;SDS011;4316;53.840;10.762;2024-03-07T01:43:11;15.60;;;8.53;;
8556;SDS011;4316;53.840;10.762;2024-03-07T01:45:37;13.37;;;7.80;;
8556;SDS011;4316;53.840;10.762;2024-03-07T01:48:03;14.07;;;8.70;;
8556;SDS011;4316;53.840;10.762;2024-03-07T01:50:31;15.37;;;9.43;;
8556;SDS011;4316;53.840;10.762;2024-03-07T01:52:57;19.20;;;8.77;;
8556;SDS011;4316;53.840;10.762;2024-03-07T01:55:26;25.33;;;9.47;;
8556;SDS011;4316;53.840;10.762;2024-03-07T01:57:52;15.27;;;8.70;;
8556;SDS011;4316;53.840;10.762;2024-03-07T02:00:24;17.53;;;9.70;;
8556;SDS011;4316;53.840;10.762;2024-03-07T02:02:51;15.37;;;9.23;;
8556;SDS011;4316;53.840;10.762;2024-03-07T02:05:18;18.20;;;9.27;;
8556;SDS011;4316;53.840;10.762;2024-03-07T02:07:44;17.17;;;9.60;;
8556;SDS011;4316;53.840;10.762;2024-03-07T02:10:10;14.77;;;10.00;;
8556;SDS011;4316;53.840;10.762;2024-03-07T02:12:37;18.17;;;10.20;;
8556;SDS011;4316;53.840;10.762;2024-03-07T02:15:03;14.50;;;8.90;;
8556;SDS011;4316;53.840;10.762;2024-03-07T02:17:29;18.27;;;10.20;;
8556;SDS011;4316;53.840;10.762;2024-03-07T02:19:55;18.83;;;8.97;;
8556;SDS011;4316;53.840;10.762;2024-03-07T02:22:21;14.50;;;9.70;;
8556;SDS011;4316;53.840;10.762;2024-03-07T02:24:47;16.37;;;9.80;;
8556;SDS011;4316;53.840;10.762;2024-03-07T02:27:13;15.03;;;9.97;;
8556;SDS011;4316;53.840;10.762;2024-03-07T02:29:42;17.20;;;9.50;;
8556;SDS011;4316;53.840;10.762;2024-03-07T02:32:08;15.30;;;9.53;;
8556;SDS011;4316;53.840;10.762;2024-03-07T02:34:35;17.10;;;9.57;;
8556;SDS011;4316;53.840;10.762;2024-03-07T02:37:01;16.93;;;10.10;;
8556;SDS011;4316;53.840;10.762;2024-03-07T02:39:26;16.83;;;9.37;;
8556;SDS011;4316;53.840;10.762;2024-03-07T02:41:55;17.27;;;10.33;;
8556;SDS011;4316;53.840;10.762;2024-03-07T02:44:21;20.70;;;10.87;;
8556;SDS011;4316;53.840;10.762;2024-03-07T02:46:47;19.87;;;10.60;;
8556;SDS011;4316;53.840;10.762;2024-03-07T02:49:13;20.47;;;10.43;;
8556;SDS011;4316;53.840;10.762;2024-03-07T02:51:42;15.43;;;10.20;;
8556;SDS011;4316;53.840;10.762;2024-03-07T02:54:08;16.50;;;10.97;;
8556;SDS011;4316;53.840;10.762;2024-03-07T02:56:34;19.37;;;10.47;;
8556;SDS011;4316;53.840;10.762;2024-03-07T02:59:00;15.93;;;10.60;;
8556;SDS011;4316;53.840;10.762;2024-03-07T03:01:26;16.73;;;10.20;;
8556;SDS011;4316;53.840;10.762;2024-03-07T03:03:52;18.87;;;10.80;;
8556;SDS011;4316;53.840;10.762;2024-03-07T03:06:18;16.77;;;10.27;;
8556;SDS011;4316;53.840;10.762;2024-03-07T03:08:48;20.43;;;10.50;;
8556;SDS011;4316;53.840;10.762;2024-03-07T03:11:15;20.40;;;11.00;;
8556;SDS011;4316;53.840;10.762;2024-03-07T03:13:41;16.37;;;10.73;;
8556;SDS011;4316;53.840;10.762;2024-03-07T03:16:07;14.10;;;9.53;;
8556;SDS011;4316;53.840;10.762;2024-03-07T03:18:34;17.60;;;10.17;;
8556;SDS011;4316;53.840;10.762;2024-03-07T03:21:00;18.20;;;10.37;;
8556;SDS011;4316;53.840;10.762;2024-03-07T03:23:27;15.90;;;9.90;;
8556;SDS011;4316;53.840;10.762;2024-03-07T03:25:53;13.93;;;10.00;;
8556;SDS011;4316;53.840;10.762;2024-03-07T03:28:20;18.10;;;10.60;;
8556;SDS011;4316;53.840;10.762;2024-03-07T03:30:47;24.57;;;11.63;;
8556;SDS011;4316;53.840;10.762;2024-03-07T03:33:13;18.77;;;10.10;;
8556;SDS011;4316;53.840;10.762;2024-03-07T03:35:40;13.60;;;9.70;;
8556;SDS011;4316;53.840;10.762;2024-03-07T03:38:07;13.13;;;9.70;;
8556;SDS011;4316;53.840;10.762;2024-03-07T03:40:33;14.43;;;9.50;;
8556;SDS011;4316;53.840;10.762;2024-03-07T03:42:59;12.10;;;9.13;;
8556;SDS011;4316;53.840;10.762;2024-03-07T03:45:25;14.00;;;9.30;;
8556;SDS011;4316;53.840;10.762;2024-03-07T03:47:52;15.47;;;8.97;;
8556;SDS011;4316;53.840;10.762;2024-03-07T03:50:18;14.33;;;9.37;;
8556;SDS011;4316;53.840;10.762;2024-03-07T03:52:44;13.37;;;9.03;;
8556;SDS011;4316;53.840;10.762;2024-03-07T03:55:11;12.10;;;7.87;;
8556;SDS011;4316;53.840;10.762;2024-03-07T03:57:39;18.00;;;10.07;;
8556;SDS011;4316;53.840;10.762;2024-03-07T04:00:05;14.10;;;10.07;;
8556;SDS011;4316;53.840;10.762;2024-03-07T04:02:44;15.70;;;10.03;;
8556;SDS011;4316;53.840;10.762;2024-03-07T04:05:13;19.73;;;10.50;;
8556;SDS011;4316;53.840;10.762;2024-03-07T04:07:40;13.30;;;9.33;;
8556;SDS011;4316;53.840;10.762;2024-03-07T04:10:09;10.37;;;8.97;;
8556;SDS011;4316;53.840;10.762;2024-03-07T04:12:36;15.17;;;9.67;;
8556;SDS011;4316;53.840;10.762;2024-03-07T04:15:05;11.07;;;8.80;;
8556;SDS011;4316;53.840;10.762;2024-03-07T04:17:32;18.27;;;8.47;;
8556;SDS011;4316;53.840;10.762;2024-03-07T04:19:59;14.93;;;8.80;;
8556;SDS011;4316;53.840;10.762;2024-03-07T04:22:25;12.37;;;7.43;;
8556;SDS011;4316;53.840;10.762;2024-03-07T04:24:52;11.30;;;7.67;;
8556;SDS011;4316;53.840;10.762;2024-03-07T04:27:20;19.10;;;8.27;;
8556;SDS011;4316;53.840;10.762;2024-03-07T04:29:47;13.60;;;9.23;;
8556;SDS011;4316;53.840;10.762;2024-03-07T04:32:14;20.17;;;8.97;;
8556;SDS011;4316;53.840;10.762;2024-03-07T04:34:40;13.53;;;8.83;;
8556;SDS011;4316;53.840;10.762;2024-03-07T04:37:06;15.30;;;8.97;;
8556;SDS011;4316;53.840;10.762;2024-03-07T04:39:32;18.90;;;8.90;;
8556;SDS011;4316;53.840;10.762;2024-03-07T04:42:04;14.60;;;8.80;;
8556;SDS011;4316;53.840;10.762;2024-03-07T04:44:31;9.87;;;7.53;;
8556;SDS011;4316;53.840;10.762;2024-03-07T04:46:59;12.77;;;7.70;;
8556;SDS011;4316;53.840;10.762;2024-03-07T04:49:29;11.97;;;8.00;;
8556;SDS011;4316;53.840;10.762;2024-03-07T04:51:56;13.77;;;8.17;;
8556;SDS011;4316;53.840;10.762;2024-03-07T04:54:24;13.80;;;8.27;;
8556;SDS011;4316;53.840;10.762;2024-03-07T04:56:51;21.20;;;8.43;;
8556;SDS011;4316;53.840;10.762;2024-03-07T04:59:18;17.50;;;8.40;;
8556;SDS011;4316;53.840;10.762;2024-03-07T05:01:44;13.80;;;8.77;;
8556;SDS011;4316;53.840;10.762;2024-03-07T05:04:14;11.03;;;8.23;;
8556;SDS011;4316;53.840;10.762;2024-03-07T05:06:41;14.07;;;8.47;;
8556;SDS011;4316;53.840;10.762;2024-03-07T05:09:08;17.27;;;8.03;;
8556;SDS011;4316;53.840;10.762;2024-03-07T05:11:35;14.10;;;8.60;;
8556;SDS011;4316;53.840;10.762;2024-03-07T05:14:01;14.47;;;8.97;;
8556;SDS011;4316;53.840;10.762;2024-03-07T05:16:28;12.40;;;8.37;;
8556;SDS011;4316;53.840;10.762;2024-03-07T05:18:56;13.60;;;8.60;;
8556;SDS011;4316;53.840;10.762;2024-03-07T05:21:27;13.47;;;8.50;;
8556;SDS011;4316;53.840;10.762;2024-03-07T05:24:03;12.13;;;8.93;;
8556;SDS011;4316;53.840;10.762;2024-03-07T05:26:33;15.17;;;10.00;;
8556;SDS011;4316;53.840;10.762;2024-03-07T05:29:05;16.33;;;9.10;;
8556;SDS011;4316;53.840;10.762;2024-03-07T05:31:37;12.03;;;7.80;;
8556;SDS011;4316;53.840;10.762;2024-03-07T05:34:03;14.03;;;9.27;;
8556;SDS011;4316;53.840;10.762;2024-03-07T05:36:34;11.70;;;8.87;;
8556;SDS011;4316;53.840;10.762;2024-03-07T05:39:00;16.30;;;8.97;;
8556;SDS011;4316;53.840;10.762;2024-03-07T05:41:35;11.17;;;8.67;;
8556;SDS011;4316;53.840;10.762;2024-03-07T05:44:01;15.50;;;8.83;;
8556;SDS011;4316;53.840;10.762;2024-03-07T05:46:28;13.33;;;8.77;;
8556;SDS011;4316;53.840;10.762;2024-03-07T05:48:54;13.07;;;7.83;;
8556;SDS011;4316;53.840;10.762;2024-03-07T05:51:22;12.03;;;8.77;;
8556;SDS011;4316;53.840;10.762;2024-03-07T05:53:48;14.83;;;8.83;;
8556;SDS011;4316;53.840;10.762;2024-03-07T05:56:15;13.20;;;9.00;;
8556;SDS011;4316;53.840;10.762;2024-03-07T05:58:41;14.53;;;9.60;;
8556;SDS011;4316;53.840;10.762;2024-03-07T06:01:07;15.00;;;9.47;;
8556;SDS011;4316;53.840;10.762;2024-03-07T06:03:33;12.13;;;9.23;;
8556;SDS011;4316;53.840;10.762;2024-03-07T06:06:00;15.10;;;9.00;;
8556;SDS011;4316;53.840;10.762;2024-03-07T06:08:26;17.33;;;9.77;;
8556;SDS011;4316;53.840;10.762;2024-03-07T06:10:52;11.07;;;9.17;;
8556;SDS011;4316;53.840;10.762;2024-03-07T06:13:18;14.87;;;9.73;;
8556;SDS011;4316;53.840;10.762;2024-03-07T06:15:44;15.13;;;10.20;;
8556;SDS011;4316;53.840;10.762;2024-03-07T06:18:11;14.37;;;9.47;;
8556;SDS011;4316;53.840;10.762;2024-03-07T06:20:42;18.73;;;10.00;;
8556;SDS011;4316;53.840;10.762;2024-03-07T06:23:08;18.03;;;10.23;;
8556;SDS011;4316;53.840;10.762;2024-03-07T06:25:37;18.57;;;11.20;;
8556;SDS011;4316;53.840;10.762;2024-03-07T06:28:12;14.40;;;10.23;;
8556;SDS011;4316;53.840;10.762;2024-03-07T06:30:39;14.87;;;9.97;;
8556;SDS011;4316;53.840;10.762;2024-03-07T06:33:08;15.37;;;10.30;;
8556;SDS011;4316;53.840;10.762;2024-03-07T06:35:35;19.30;;;11.93;;
8556;SDS011;4316;53.840;10.762;2024-03-07T06:38:07;19.50;;;11.00;;
8556;SDS011;4316;53.840;10.762;2024-03-07T06:40:34;17.43;;;10.37;;
8556;SDS011;4316;53.840;10.762;2024-03-07T06:43:01;18.17;;;10.37;;
8556;SDS011;4316;53.840;10.762;2024-03-07T06:45:29;18.73;;;9.93;;
8556;SDS011;4316;53.840;10.762;2024-03-07T06:47:56;18.60;;;9.60;;
8556;SDS011;4316;53.840;10.762;2024-03-07T06:50:22;15.60;;;10.93;;
8556;SDS011;4316;53.840;10.762;2024-03-07T06:52:48;19.90;;;10.77;;
8556;SDS011;4316;53.840;10.762;2024-03-07T06:55:15;15.77;;;10.50;;
8556;SDS011;4316;53.840;10.762;2024-03-07T06:57:44;14.77;;;9.73;;
8556;SDS011;4316;53.840;10.762;2024-03-07T07:00:14;20.70;;;9.57;;
8556;SDS011;4316;53.840;10.762;2024-03-07T07:02:46;18.27;;;11.30;;
8556;SDS011;4316;53.840;10.762;2024-03-07T07:05:13;17.37;;;11.10;;
8556;SDS011;4316;53.840;10.762;2024-03-07T07:07:46;18.77;;;10.60;;
8556;SDS011;4316;53.840;10.762;2024-03-07T07:10:12;16.27;;;10.10;;
8556;SDS011;4316;53.840;10.762;2024-03-07T07:12:46;13.03;;;9.40;;
8556;SDS011;4316;53.840;10.762;2024-03-07T07:15:17;16.93;;;10.67;;
8556;SDS011;4316;53.840;10.762;2024-03-07T07:17:44;15.83;;;9.17;;
8556;SDS011;4316;53.840;10.762;2024-03-07T07:20:16;17.63;;;10.60;;
8556;SDS011;4316;53.840;10.762;2024-03-07T07:22:43;16.27;;;9.90;;
8556;SDS011;4316;53.840;10.762;2024-03-07T07:25:11;14.00;;;10.40;;
8556;SDS011;4316;53.840;10.762;2024-03-07T07:27:48;17.33;;;10.17;;
8556;SDS011;4316;53.840;10.762;2024-03-07T07:30:16;13.93;;;10.17;;
8556;SDS011;4316;53.840;10.762;2024-03-07T07:32:44;17.27;;;10.23;;
8556;SDS011;4316;53.840;10.762;2024-03-07T07:35:11;17.20;;;9.30;;
8556;SDS011;4316;53.840;10.762;2024-03-07T07:37:38;19.10;;;9.90;;
8556;SDS011;4316;53.840;10.762;2024-03-07T07:40:04;17.73;;;10.70;;
8556;SDS011;4316;53.840;10.762;2024-03-07T07:42:33;15.33;;;9.63;;
8556;SDS011;4316;53.840;10.762;2024-03-07T07:45:00;14.83;;;10.07;;
8556;SDS011;4316;53.840;10.762;2024-03-07T07:47:26;16.20;;;10.13;;
8556;SDS011;4316;53.840;10.762;2024-03-07T07:49:52;18.40;;;10.80;;
8556;SDS011;4316;53.840;10.762;2024-03-07T07:52:17;16.10;;;10.20;;
8556;SDS011;4316;53.840;10.762;2024-03-07T07:54:43;19.17;;;10.23;;
8556;SDS011;4316;53.840;10.762;2024-03-07T07:57:09;21.03;;;12.23;;
8556;SDS011;4316;53.840;10.762;2024-03-07T07:59:35;21.77;;;12.80;;
8556;SDS011;4316;53.840;10.762;2024-03-07T08:02:02;21.83;;;11.27;;
8556;SDS011;4316;53.840;10.762;2024-03-07T08:04:31;19.50;;;12.50;;
8556;SDS011;4316;53.840;10.762;2024-03-07T08:06:57;20.97;;;12.10;;
8556;SDS011;4316;53.840;10.762;2024-03-07T08:09:23;18.17;;;12.63;;
8556;SDS011;4316;53.840;10.762;2024-03-07T08:11:49;23.23;;;13.40;;
8556;SDS011;4316;53.840;10.762;2024-03-07T08:14:15;23.77;;;13.37;;
8556;SDS011;4316;53.840;10.762;2024-03-07T08:16:41;24.70;;;13.23;;
8556;SDS011;4316;53.840;10.762;2024-03-07T08:19:07;20.97;;;14.00;;
8556;SDS011;4316;53.840;10.762;2024-03-07T08:21:34;21.10;;;12.87;;
8556;SDS011;4316;53.840;10.762;2024-03-07T08:24:00;21.53;;;14.00;;
8556;SDS011;4316;53.840;10.762;2024-03-07T08:26:28;21.97;;;12.57;;
8556;SDS011;4316;53.840;10.762;2024-03-07T08:28:54;19.40;;;13.17;;
8556;SDS011;4316;53.840;10.762;2024-03-07T08:31:20;23.90;;;13.83;;
8556;SDS011;4316;53.840;10.762;2024-03-07T08:33:46;23.43;;;15.13;;
8556;SDS011;4316;53.840;10.762;2024-03-07T08:36:12;21.20;;;13.57;;
8556;SDS011;4316;53.840;10.762;2024-03-07T08:38:37;21.87;;;14.07;;
8556;SDS011;4316;53.840;10.762;2024-03-07T08:41:04;19.17;;;13.13;;
8556;SDS011;4316;53.840;10.762;2024-03-07T08:43:30;25.50;;;14.87;;
8556;SDS011;4316;53.840;10.762;2024-03-07T08:45:56;23.60;;;13.40;;
8556;SDS011;4316;53.840;10.762;2024-03-07T08:48:22;30.30;;;14.97;;
8556;SDS011;4316;53.840;10.762;2024-03-07T08:50:48;21.87;;;13.00;;
8556;SDS011;4316;53.840;10.762;2024-03-07T08:53:13;20.93;;;13.13;;
8556;SDS011;4316;53.840;10.762;2024-03-07T08:55:39;23.43;;;13.87;;
8556;SDS011;4316;53.840;10.762;2024-03-07T08:58:05;27.23;;;14.93;;
8556;SDS011;4316;53.840;10.762;2024-03-07T09:00:31;21.33;;;14.77;;
8556;SDS011;4316;53.840;10.762;2024-03-07T09:02:58;22.07;;;13.20;;
8556;SDS011;4316;53.840;10.762;2024-03-07T09:05:24;21.00;;;13.43;;
8556;SDS011;4316;53.840;10.762;2024-03-07T09:07:52;23.87;;;15.97;;
8556;SDS011;4316;53.840;10.762;2024-03-07T09:10:18;21.90;;;13.17;;
8556;SDS011;4316;53.840;10.762;2024-03-07T09:12:45;21.10;;;14.23;;
8556;SDS011;4316;53.840;10.762;2024-03-07T09:15:14;29.07;;;13.50;;
8556;SDS011;4316;53.840;10.762;2024-03-07T09:17:42;24.00;;;14.03;;
8556;SDS011;4316;53.840;10.762;2024-03-07T09:20:08;20.03;;;13.40;;
8556;SDS011;4316;53.840;10.762;2024-03-07T09:22:43;27.13;;;13.80;;
8556;SDS011;4316;53.840;10.762;2024-03-07T09:25:10;32.97;;;14.33;;
8556;SDS011;4316;53.840;10.762;2024-03-07T09:27:37;22.67;;;14.47;;
8556;SDS011;4316;53.840;10.762;2024-03-07T09:30:09;28.37;;;15.73;;
8556;SDS011;4316;53.840;10.762;2024-03-07T09:32:44;24.17;;;15.30;;
8556;SDS011;4316;53.840;10.762;2024-03-07T09:35:10;27.13;;;17.83;;
8556;SDS011;4316;53.840;10.762;2024-03-07T09:37:40;27.70;;;16.80;;
8556;SDS011;4316;53.840;10.762;2024-03-07T09:40:08;33.60;;;16.60;;
8556;SDS011;4316;53.840;10.762;2024-03-07T09:42:41;27.77;;;15.80;;
8556;SDS011;4316;53.840;10.762;2024-03-07T09:45:13;25.60;;;15.70;;
8556;SDS011;4316;53.840;10.762;2024-03-07T09:47:45;31.10;;;17.00;;
8556;SDS011;4316;53.840;10.762;2024-03-07T09:50:13;30.23;;;17.03;;
8556;SDS011;4316;53.840;10.762;2024-03-07T09:52:49;28.33;;;16.77;;
8556;SDS011;4316;53.840;10.762;2024-03-07T09:55:16;27.53;;;16.60;;
8556;SDS011;4316;53.840;10.762;2024-03-07T09:57:46;29.10;;;17.60;;
8556;SDS011;4316;53.840;10.762;2024-03-07T10:00:12;31.90;;;17.57;;
8556;SDS011;4316;53.840;10.762;2024-03-07T10:02:48;28.80;;;16.63;;
8556;SDS011;4316;53.840;10.762;2024-03-07T10:05:18;30.97;;;17.33;;
8556;SDS011;4316;53.840;10.762;2024-03-07T10:07:45;29.30;;;15.87;;
8556;SDS011;4316;53.840;10.762;2024-03-07T10:10:11;26.77;;;15.93;;
8556;SDS011;4316;53.840;10.762;2024-03-07T10:12:37;29.57;;;17.33;;
8556;SDS011;4316;53.840;10.762;2024-03-07T10:15:04;23.90;;;16.13;;
8556;SDS011;4316;53.840;10.762;2024-03-07T10:17:38;25.80;;;15.47;;
8556;SDS011;4316;53.840;10.762;2024-03-07T10:20:05;28.73;;;16.90;;
8556;SDS011;4316;53.840;10.762;2024-03-07T10:22:37;26.13;;;16.70;;
8556;SDS011;4316;53.840;10.762;2024-03-07T10:25:03;26.90;;;15.83;;
8556;SDS011;4316;53.840;10.762;2024-03-07T10:27:30;28.63;;;16.83;;
8556;SDS011;4316;53.840;10.762;2024-03-07T10:29:56;25.27;;;16.37;;
8556;SDS011;4316;53.840;10.762;2024-03-07T10:32:22;29.30;;;17.00;;
8556;SDS011;4316;53.840;10.762;2024-03-07T10:34:50;21.17;;;15.10;;
8556;SDS011;4316;53.840;10.762;2024-03-07T10:37:16;27.57;;;15.97;;
8556;SDS011;4316;53.840;10.762;2024-03-07T10:39:44;24.67;;;16.17;;
8556;SDS011;4316;53.840;10.762;2024-03-07T10:42:14;22.73;;;15.10;;
8556;SDS011;4316;53.840;10.762;2024-03-07T10:44:44;27.43;;;17.30;;
8556;SDS011;4316;53.840;10.762;2024-03-07T10:47:17;21.93;;;14.97;;
8556;SDS011;4316;53.840;10.762;2024-03-07T10:49:59;22.37;;;15.40;;
8556;SDS011;4316;53.840;10.762;2024-03-07T10:52:47;21.67;;;14.50;;
8556;SDS011;4316;53.840;10.762;2024-03-07T10:58:14;25.90;;;14.43;;
8556;SDS011;4316;53.840;10.762;2024-03-07T11:00:53;27.37;;;14.40;;
8556;SDS011;4316;53.840;10.762;2024-03-07T11:03:23;21.60;;;14.77;;
8556;SDS011;4316;53.840;10.762;2024-03-07T11:05:50;24.17;;;13.53;;
8556;SDS011;4316;53.840;10.762;2024-03-07T11:08:17;24.13;;;14.60;;
8556;SDS011;4316;53.840;10.762;2024-03-07T11:10:45;21.30;;;13.63;;
8556;SDS011;4316;53.840;10.762;2024-03-07T11:13:12;20.70;;;13.70;;
8556;SDS011;4316;53.840;10.762;2024-03-07T11:15:40;24.17;;;14.77;;
8556;SDS011;4316;53.840;10.762;2024-03-07T11:18:08;21.13;;;14.00;;
8556;SDS011;4316;53.840;10.762;2024-03-07T11:20:38;24.23;;;14.23;;
8556;SDS011;4316;53.840;10.762;2024-03-07T11:26:05;21.37;;;14.40;;
8556;SDS011;4316;53.840;10.762;2024-03-07T11:28:36;19.90;;;13.30;;
8556;SDS011;4316;53.840;10.762;2024-03-07T11:36:46;17.90;;;12.83;;
8556;SDS011;4316;53.840;10.762;2024-03-07T11:44:57;24.73;;;14.53;;
8556;SDS011;4316;53.840;10.762;2024-03-07T11:47:23;20.57;;;13.23;;
8556;SDS011;4316;53.840;10.762;2024-03-07T11:50:00;18.80;;;12.87;;
8556;SDS011;4316;53.840;10.762;2024-03-07T11:52:27;26.87;;;14.00;;
8556;SDS011;4316;53.840;10.762;2024-03-07T11:54:53;22.87;;;12.40;;
8556;SDS011;4316;53.840;10.762;2024-03-07T11:57:28;19.80;;;12.70;;
8556;SDS011;4316;53.840;10.762;2024-03-07T12:00:00;23.67;;;14.57;;
8556;SDS011;4316;53.840;10.762;2024-03-07T12:02:38;20.23;;;13.43;;
8556;SDS011;4316;53.840;10.762;2024-03-07T12:05:04;18.83;;;13.13;;
8556;SDS011;4316;53.840;10.762;2024-03-07T12:07:31;26.83;;;13.13;;
8556;SDS011;4316;53.840;10.762;2024-03-07T12:09:59;20.70;;;13.40;;
8556;SDS011;4316;53.840;10.762;2024-03-07T12:12:28;19.00;;;13.03;;
8556;SDS011;4316;53.840;10.762;2024-03-07T12:14:55;23.33;;;13.67;;
8556;SDS011;4316;53.840;10.762;2024-03-07T12:17:21;19.00;;;13.40;;
8556;SDS011;4316;53.840;10.762;2024-03-07T12:19:48;25.90;;;14.43;;
8556;SDS011;4316;53.840;10.762;2024-03-07T12:22:18;20.33;;;13.70;;
8556;SDS011;4316;53.840;10.762;2024-03-07T12:24:48;31.10;;;14.10;;
8556;SDS011;4316;53.840;10.762;2024-03-07T12:27:27;17.90;;;13.20;;
8556;SDS011;4316;53.840;10.762;2024-03-07T12:29:54;22.17;;;14.10;;
8556;SDS011;4316;53.840;10.762;2024-03-07T12:32:20;20.97;;;13.17;;
8556;SDS011;4316;53.840;10.762;2024-03-07T12:34:46;20.23;;;12.30;;
8556;SDS011;4316;53.840;10.762;2024-03-07T12:37:13;26.50;;;13.50;;
8556;SDS011;4316;53.840;10.762;2024-03-07T12:39:42;20.53;;;13.03;;
8556;SDS011;4316;53.840;10.762;2024-03-07T12:42:14;18.67;;;12.23;;
8556;SDS011;4316;53.840;10.762;2024-03-07T12:44:42;26.33;;;13.90;;
8556;SDS011;4316;53.840;10.762;2024-03-07T12:47:14;20.43;;;13.33;;
8556;SDS011;4316;53.840;10.762;2024-03-07T12:49:43;15.67;;;12.03;;
8556;SDS011;4316;53.840;10.762;2024-03-07T12:52:13;19.43;;;13.40;;
8556;SDS011;4316;53.840;10.762;2024-03-07T12:54:40;24.80;;;13.77;;
8556;SDS011;4316;53.840;10.762;2024-03-07T12:57:07;23.17;;;12.90;;
8556;SDS011;4316;53.840;10.762;2024-03-07T12:59:40;20.60;;;13.20;;
8556;SDS011;4316;53.840;10.762;2024-03-07T13:02:07;22.70;;;13.63;;
8556;SDS011;4316;53.840;10.762;2024-03-07T13:04:33;18.50;;;11.53;;
8556;SDS011;4316;53.840;10.762;2024-03-07T13:06:59;21.40;;;12.30;;
8556;SDS011;4316;53.840;10.762;2024-03-07T13:09:29;20.60;;;12.63;;
8556;SDS011;4316;53.840;10.762;2024-03-07T13:11:57;16.87;;;12.20;;
8556;SDS011;4316;53.840;10.762;2024-03-07T13:14:26;15.83;;;12.20;;
8556;SDS011;4316;53.840;10.762;2024-03-07T13:17:01;22.17;;;12.23;;
8556;SDS011;4316;53.840;10.762;2024-03-07T13:19:29;22.90;;;12.13;;
8556;SDS011;4316;53.840;10.762;2024-03-07T13:21:56;27.03;;;12.20;;
8556;SDS011;4316;53.840;10.762;2024-03-07T13:24:22;17.80;;;11.73;;
8556;SDS011;4316;53.840;10.762;2024-03-07T13:26:49;23.67;;;12.90;;
8556;SDS011;4316;53.840;10.762;2024-03-07T13:29:15;20.80;;;11.30;;
8556;SDS011;4316;53.840;10.762;2024-03-07T13:31:44;20.17;;;11.60;;
8556;SDS011;4316;53.840;10.762;2024-03-07T13:34:10;16.60;;;11.20;;
8556;SDS011;4316;53.840;10.762;2024-03-07T13:36:40;18.97;;;11.13;;
8556;SDS011;4316;53.840;10.762;2024-03-07T13:39:07;18.07;;;12.00;;
8556;SDS011;4316;53.840;10.762;2024-03-07T13:41:43;18.33;;;11.23;;
8556;SDS011;4316;53.840;10.762;2024-03-07T13:44:13;20.10;;;11.73;;
8556;SDS011;4316;53.840;10.762;2024-03-07T13:46:40;19.83;;;11.90;;
8556;SDS011;4316;53.840;10.762;2024-03-07T13:49:06;17.23;;;11.37;;
8556;SDS011;4316;53.840;10.762;2024-03-07T13:51:35;22.50;;;11.67;;
8556;SDS011;4316;53.840;10.762;2024-03-07T13:54:02;25.67;;;13.33;;
8556;SDS011;4316;53.840;10.762;2024-03-07T14:00:05;20.27;;;12.17;;
8556;SDS011;4316;53.840;10.762;2024-03-07T14:07:50;19.83;;;12.63;;
8556;SDS011;4316;53.840;10.762;2024-03-07T14:13:22;19.87;;;13.67;;
8556;SDS011;4316;53.840;10.762;2024-03-07T14:16:21;23.20;;;14.13;;
8556;SDS011;4316;53.840;10.762;2024-03-07T14:25:09;19.30;;;12.73;;
8556;SDS011;4316;53.840;10.762;2024-03-07T14:27:50;19.97;;;13.10;;
8556;SDS011;4316;53.840;10.762;2024-03-07T14:32:56;17.97;;;12.37;;
8556;SDS011;4316;53.840;10.762;2024-03-07T14:40:54;23.27;;;12.30;;
8556;SDS011;4316;53.840;10.762;2024-03-07T14:43:22;21.97;;;12.90;;
8556;SDS011;4316;53.840;10.762;2024-03-07T14:45:49;21.43;;;11.27;;
8556;SDS011;4316;53.840;10.762;2024-03-07T14:48:17;16.03;;;11.40;;
8556;SDS011;4316;53.840;10.762;2024-03-07T14:50:44;19.63;;;11.23;;
8556;SDS011;4316;53.840;10.762;2024-03-07T14:53:12;24.10;;;11.90;;
8556;SDS011;4316;53.840;10.762;2024-03-07T14:55:42;18.30;;;11.83;;
8556;SDS011;4316;53.840;10.762;2024-03-07T14:58:08;16.50;;;11.03;;
8556;SDS011;4316;53.840;10.762;2024-03-07T15:00:38;18.33;;;10.57;;
8556;SDS011;4316;53.840;10.762;2024-03-07T15:03:09;21.20;;;12.37;;
8556;SDS011;4316;53.840;10.762;2024-03-07T15:05:40;17.57;;;11.30;;
8556;SDS011;4316;53.840;10.762;2024-03-07T15:08:06;22.27;;;12.50;;
8556;SDS011;4316;53.840;10.762;2024-03-07T15:10:35;17.83;;;11.77;;
8556;SDS011;4316;53.840;10.762;2024-03-07T15:13:02;19.33;;;10.70;;
8556;SDS011;4316;53.840;10.762;2024-03-07T15:15:28;17.43;;;11.10;;
8556;SDS011;4316;53.840;10.762;2024-03-07T15:17:57;19.37;;;10.67;;
8556;SDS011;4316;53.840;10.762;2024-03-07T15:20:24;15.30;;;10.50;;
8556;SDS011;4316;53.840;10.762;2024-03-07T15:22:55;13.80;;;9.80;;
8556;SDS011;4316;53.840;10.762;2024-03-07T15:25:25;14.93;;;9.93;;